sensor_id;sensor_type;location;lat;lon;timestamp;P1;durP1;ratioP1;P2;durP2;ratioP2
67092;SDS011;54011;50.772;7.730;2023-04-24T00:00:47;1.73;;;0.60;;
67092;SDS011;54011;50.772;7.730;2023-04-24T00:03:12;3.20;;;0.60;;
67092;SDS011;54011;50.772;7.730;2023-04-24T00:05:38;7.63;;;0.93;;
67092;SDS011;54011;50.772;7.730;2023-04-24T00:08:05;0.98;;;0.60;;
67092;SDS011;54011;50.772;7.730;2023-04-24T00:10:31;1.58;;;0.60;;
67092;SDS011;54011;50.772;7.730;2023-04-24T00:12:56;1.27;;;0.65;;
67092;SDS011;54011;50.772;7.730;2023-04-24T00:15:22;1.92;;;0.73;;
67092;SDS011;54011;50.772;7.730;2023-04-24T00:17:48;0.75;;;0.50;;
67092;SDS011;54011;50.772;7.730;2023-04-24T00:20:13;2.22;;;0.70;;
67092;SDS011;54011;50.772;7.730;2023-04-24T00:22:39;5.25;;;1.20;;
67092;SDS011;54011;50.772;7.730;2023-04-24T00:25:05;2.10;;;0.70;;
67092;SDS011;54011;50.772;7.730;2023-04-24T00:27:31;1.83;;;0.70;;
67092;SDS011;54011;50.772;7.730;2023-04-24T00:29:56;1.20;;;0.60;;
67092;SDS011;54011;50.772;7.730;2023-04-24T00:32:22;3.25;;;0.68;;
67092;SDS011;54011;50.772;7.730;2023-04-24T00:34:48;2.58;;;0.70;;
67092;SDS011;54011;50.772;7.730;2023-04-24T00:37:13;2.10;;;0.60;;
67092;SDS011;54011;50.772;7.730;2023-04-24T00:39:39;1.15;;;0.52;;
67092;SDS011;54011;50.772;7.730;2023-04-24T00:42:04;2.00;;;0.60;;
67092;SDS011;54011;50.772;7.730;2023-04-24T00:44:32;2.22;;;0.60;;
67092;SDS011;54011;50.772;7.730;2023-04-24T00:46:58;0.68;;;0.50;;
67092;SDS011;54011;50.772;7.730;2023-04-24T00:49:24;0.93;;;0.57;;
67092;SDS011;54011;50.772;7.730;2023-04-24T00:51:50;2.67;;;0.57;;
67092;SDS011;54011;50.772;7.730;2023-04-24T00:54:16;2.05;;;0.70;;
67092;SDS011;54011;50.772;7.730;2023-04-24T00:56:42;1.33;;;0.60;;
67092;SDS011;54011;50.772;7.730;2023-04-24T00:59:10;1.80;;;0.70;;
67092;SDS011;54011;50.772;7.730;2023-04-24T01:01:37;2.15;;;0.70;;
67092;SDS011;54011;50.772;7.730;2023-04-24T01:04:07;3.13;;;0.85;;
67092;SDS011;54011;50.772;7.730;2023-04-24T01:06:35;3.97;;;0.88;;
67092;SDS011;54011;50.772;7.730;2023-04-24T01:09:04;3.78;;;0.90;;
67092;SDS011;54011;50.772;7.730;2023-04-24T01:11:30;1.17;;;0.52;;
67092;SDS011;54011;50.772;7.730;2023-04-24T01:13:56;2.05;;;0.80;;
67092;SDS011;54011;50.772;7.730;2023-04-24T01:16:22;1.67;;;0.70;;
67092;SDS011;54011;50.772;7.730;2023-04-24T01:18:48;1.23;;;0.60;;
67092;SDS011;54011;50.772;7.730;2023-04-24T01:21:14;3.60;;;0.60;;
67092;SDS011;54011;50.772;7.730;2023-04-24T01:23:44;1.40;;;0.70;;
67092;SDS011;54011;50.772;7.730;2023-04-24T01:26:10;1.83;;;0.57;;
67092;SDS011;54011;50.772;7.730;2023-04-24T01:28:37;1.10;;;0.60;;
67092;SDS011;54011;50.772;7.730;2023-04-24T01:31:04;1.38;;;0.70;;
67092;SDS011;54011;50.772;7.730;2023-04-24T01:33:30;3.63;;;0.70;;
67092;SDS011;54011;50.772;7.730;2023-04-24T01:35:56;1.92;;;0.60;;
67092;SDS011;54011;50.772;7.730;2023-04-24T01:38:22;1.70;;;0.60;;
67092;SDS011;54011;50.772;7.730;2023-04-24T01:40:48;3.80;;;0.60;;
67092;SDS011;54011;50.772;7.730;2023-04-24T01:43:20;0.98;;;0.50;;
67092;SDS011;54011;50.772;7.730;2023-04-24T01:45:50;1.17;;;0.57;;
67092;SDS011;54011;50.772;7.730;2023-04-24T01:48:15;1.98;;;0.60;;
67092;SDS011;54011;50.772;7.730;2023-04-24T01:50:41;1.35;;;0.60;;
67092;SDS011;54011;50.772;7.730;2023-04-24T01:53:06;1.50;;;0.60;;
67092;SDS011;54011;50.772;7.730;2023-04-24T01:55:32;2.40;;;0.60;;
67092;SDS011;54011;50.772;7.730;2023-04-24T01:57:58;0.90;;;0.60;;
67092;SDS011;54011;50.772;7.730;2023-04-24T02:00:25;1.88;;;0.70;;
67092;SDS011;54011;50.772;7.730;2023-04-24T02:02:52;1.33;;;0.60;;
67092;SDS011;54011;50.772;7.730;2023-04-24T02:05:18;3.20;;;0.82;;
67092;SDS011;54011;50.772;7.730;2023-04-24T02:07:44;1.77;;;0.70;;
67092;SDS011;54011;50.772;7.730;2023-04-24T02:10:09;2.75;;;0.63;;
67092;SDS011;54011;50.772;7.730;2023-04-24T02:12:35;1.92;;;0.82;;
67092;SDS011;54011;50.772;7.730;2023-04-24T02:15:01;1.73;;;0.73;;
67092;SDS011;54011;50.772;7.730;2023-04-24T02:17:27;3.28;;;0.90;;
67092;SDS011;54011;50.772;7.730;2023-04-24T02:19:52;1.73;;;0.80;;
67092;SDS011;54011;50.772;7.730;2023-04-24T02:22:18;1.58;;;0.50;;
67092;SDS011;54011;50.772;7.730;2023-04-24T02:24:43;2.10;;;0.80;;
67092;SDS011;54011;50.772;7.730;2023-04-24T02:27:09;1.65;;;0.75;;
67092;SDS011;54011;50.772;7.730;2023-04-24T02:29:36;2.53;;;0.65;;
67092;SDS011;54011;50.772;7.730;2023-04-24T02:32:02;2.63;;;0.73;;
67092;SDS011;54011;50.772;7.730;2023-04-24T02:34:28;3.45;;;1.08;;
67092;SDS011;54011;50.772;7.730;2023-04-24T02:36:53;1.70;;;0.82;;
67092;SDS011;54011;50.772;7.730;2023-04-24T02:39:19;2.65;;;1.08;;
67092;SDS011;54011;50.772;7.730;2023-04-24T02:41:45;2.50;;;1.00;;
67092;SDS011;54011;50.772;7.730;2023-04-24T02:44:10;2.55;;;1.10;;
67092;SDS011;54011;50.772;7.730;2023-04-24T02:46:36;1.65;;;0.85;;
67092;SDS011;54011;50.772;7.730;2023-04-24T02:49:02;5.30;;;1.20;;
67092;SDS011;54011;50.772;7.730;2023-04-24T02:51:28;2.20;;;1.20;;
67092;SDS011;54011;50.772;7.730;2023-04-24T02:53:54;2.10;;;0.90;;
67092;SDS011;54011;50.772;7.730;2023-04-24T02:56:19;1.92;;;1.00;;
67092;SDS011;54011;50.772;7.730;2023-04-24T02:58:45;2.70;;;1.25;;
67092;SDS011;54011;50.772;7.730;2023-04-24T03:01:10;2.80;;;1.20;;
67092;SDS011;54011;50.772;7.730;2023-04-24T03:09:26;1.92;;;1.00;;
67092;SDS011;54011;50.772;7.730;2023-04-24T03:11:55;2.83;;;1.23;;
67092;SDS011;54011;50.772;7.730;2023-04-24T03:14:22;2.33;;;1.08;;
67092;SDS011;54011;50.772;7.730;2023-04-24T03:16:48;2.80;;;1.40;;
67092;SDS011;54011;50.772;7.730;2023-04-24T03:19:13;4.18;;;1.70;;
67092;SDS011;54011;50.772;7.730;2023-04-24T03:21:58;3.85;;;1.67;;
67092;SDS011;54011;50.772;7.730;2023-04-24T03:24:23;3.45;;;1.73;;
67092;SDS011;54011;50.772;7.730;2023-04-24T03:26:49;3.53;;;1.60;;
67092;SDS011;54011;50.772;7.730;2023-04-24T03:29:27;3.38;;;1.88;;
67092;SDS011;54011;50.772;7.730;2023-04-24T03:31:52;8.40;;;2.28;;
67092;SDS011;54011;50.772;7.730;2023-04-24T03:34:18;5.72;;;2.20;;
67092;SDS011;54011;50.772;7.730;2023-04-24T03:36:45;4.65;;;2.33;;
67092;SDS011;54011;50.772;7.730;2023-04-24T03:39:13;4.68;;;1.92;;
67092;SDS011;54011;50.772;7.730;2023-04-24T03:41:44;5.20;;;1.88;;
67092;SDS011;54011;50.772;7.730;2023-04-24T03:44:15;4.25;;;1.75;;
67092;SDS011;54011;50.772;7.730;2023-04-24T03:46:40;5.03;;;2.35;;
67092;SDS011;54011;50.772;7.730;2023-04-24T03:49:08;4.47;;;2.30;;
67092;SDS011;54011;50.772;7.730;2023-04-24T03:51:37;4.50;;;1.98;;
67092;SDS011;54011;50.772;7.730;2023-04-24T03:54:17;4.70;;;2.25;;
67092;SDS011;54011;50.772;7.730;2023-04-24T03:56:45;7.28;;;2.50;;
67092;SDS011;54011;50.772;7.730;2023-04-24T03:59:11;4.80;;;1.88;;
67092;SDS011;54011;50.772;7.730;2023-04-24T04:01:39;3.30;;;1.60;;
67092;SDS011;54011;50.772;7.730;2023-04-24T04:04:10;6.43;;;2.50;;
67092;SDS011;54011;50.772;7.730;2023-04-24T04:06:38;4.95;;;2.40;;
67092;SDS011;54011;50.772;7.730;2023-04-24T04:09:04;3.58;;;2.00;;
67092;SDS011;54011;50.772;7.730;2023-04-24T04:11:31;4.75;;;2.63;;
67092;SDS011;54011;50.772;7.730;2023-04-24T04:13:58;4.78;;;2.30;;
67092;SDS011;54011;50.772;7.730;2023-04-24T04:16:24;3.78;;;2.05;;
67092;SDS011;54011;50.772;7.730;2023-04-24T04:18:54;5.07;;;2.97;;
67092;SDS011;54011;50.772;7.730;2023-04-24T04:21:20;5.53;;;2.65;;
67092;SDS011;54011;50.772;7.730;2023-04-24T04:23:53;8.35;;;3.25;;
67092;SDS011;54011;50.772;7.730;2023-04-24T04:26:25;3.72;;;2.03;;
67092;SDS011;54011;50.772;7.730;2023-04-24T04:29:12;5.32;;;2.70;;
67092;SDS011;54011;50.772;7.730;2023-04-24T04:31:42;5.18;;;3.05;;
67092;SDS011;54011;50.772;7.730;2023-04-24T04:34:12;8.75;;;3.55;;
67092;SDS011;54011;50.772;7.730;2023-04-24T04:36:40;9.85;;;3.40;;
67092;SDS011;54011;50.772;7.730;2023-04-24T04:39:25;5.85;;;2.75;;
67092;SDS011;54011;50.772;7.730;2023-04-24T04:41:59;4.70;;;2.50;;
67092;SDS011;54011;50.772;7.730;2023-04-24T04:44:31;6.68;;;2.97;;
67092;SDS011;54011;50.772;7.730;2023-04-24T04:46:58;5.75;;;3.25;;
67092;SDS011;54011;50.772;7.730;2023-04-24T04:49:32;4.95;;;3.03;;
67092;SDS011;54011;50.772;7.730;2023-04-24T04:51:58;6.22;;;3.20;;
67092;SDS011;54011;50.772;7.730;2023-04-24T04:54:27;5.68;;;3.30;;
67092;SDS011;54011;50.772;7.730;2023-04-24T04:56:53;5.85;;;3.10;;
67092;SDS011;54011;50.772;7.730;2023-04-24T04:59:20;5.30;;;2.88;;
67092;SDS011;54011;50.772;7.730;2023-04-24T05:01:49;7.05;;;3.13;;
67092;SDS011;54011;50.772;7.730;2023-04-24T05:04:16;5.60;;;3.30;;
67092;SDS011;54011;50.772;7.730;2023-04-24T05:06:42;4.88;;;3.10;;
67092;SDS011;54011;50.772;7.730;2023-04-24T05:09:08;5.55;;;2.67;;
67092;SDS011;54011;50.772;7.730;2023-04-24T05:11:41;5.88;;;3.20;;
67092;SDS011;54011;50.772;7.730;2023-04-24T05:14:07;5.78;;;2.88;;
67092;SDS011;54011;50.772;7.730;2023-04-24T05:16:37;6.57;;;3.30;;
67092;SDS011;54011;50.772;7.730;2023-04-24T05:19:05;7.25;;;2.83;;
67092;SDS011;54011;50.772;7.730;2023-04-24T05:24:02;6.38;;;2.90;;
67092;SDS011;54011;50.772;7.730;2023-04-24T05:26:54;4.85;;;2.03;;
67092;SDS011;54011;50.772;7.730;2023-04-24T05:29:25;6.28;;;3.08;;
67092;SDS011;54011;50.772;7.730;2023-04-24T05:31:52;5.43;;;3.10;;
67092;SDS011;54011;50.772;7.730;2023-04-24T05:34:19;7.03;;;2.83;;
67092;SDS011;54011;50.772;7.730;2023-04-24T05:36:50;5.35;;;3.03;;
67092;SDS011;54011;50.772;7.730;2023-04-24T05:39:16;5.38;;;2.63;;
67092;SDS011;54011;50.772;7.730;2023-04-24T05:41:43;6.63;;;2.72;;
67092;SDS011;54011;50.772;7.730;2023-04-24T05:44:10;4.75;;;2.85;;
67092;SDS011;54011;50.772;7.730;2023-04-24T05:46:38;5.00;;;2.45;;
67092;SDS011;54011;50.772;7.730;2023-04-24T05:49:04;4.85;;;2.45;;
67092;SDS011;54011;50.772;7.730;2023-04-24T05:51:31;6.38;;;2.00;;
67092;SDS011;54011;50.772;7.730;2023-04-24T05:53:59;5.00;;;2.38;;
67092;SDS011;54011;50.772;7.730;2023-04-24T05:56:27;7.75;;;2.42;;
67092;SDS011;54011;50.772;7.730;2023-04-24T05:58:54;6.72;;;3.15;;
67092;SDS011;54011;50.772;7.730;2023-04-24T06:01:19;6.68;;;3.03;;
67092;SDS011;54011;50.772;7.730;2023-04-24T06:03:53;6.40;;;3.03;;
67092;SDS011;54011;50.772;7.730;2023-04-24T06:06:20;4.10;;;2.10;;
67092;SDS011;54011;50.772;7.730;2023-04-24T06:08:47;5.53;;;3.20;;
67092;SDS011;54011;50.772;7.730;2023-04-24T06:11:14;5.20;;;3.00;;
67092;SDS011;54011;50.772;7.730;2023-04-24T06:13:41;5.45;;;2.78;;
67092;SDS011;54011;50.772;7.730;2023-04-24T06:16:29;6.18;;;2.97;;
67092;SDS011;54011;50.772;7.730;2023-04-24T06:19:01;4.90;;;2.58;;
67092;SDS011;54011;50.772;7.730;2023-04-24T06:21:27;7.72;;;2.95;;
67092;SDS011;54011;50.772;7.730;2023-04-24T06:23:52;6.15;;;3.33;;
67092;SDS011;54011;50.772;7.730;2023-04-24T06:26:19;5.45;;;3.10;;
67092;SDS011;54011;50.772;7.730;2023-04-24T06:28:45;4.28;;;2.03;;
67092;SDS011;54011;50.772;7.730;2023-04-24T06:31:10;5.88;;;3.08;;
67092;SDS011;54011;50.772;7.730;2023-04-24T06:33:37;6.95;;;3.35;;
67092;SDS011;54011;50.772;7.730;2023-04-24T06:36:03;7.28;;;3.45;;
67092;SDS011;54011;50.772;7.730;2023-04-24T06:38:29;6.97;;;3.42;;
67092;SDS011;54011;50.772;7.730;2023-04-24T06:40:54;6.72;;;3.30;;
67092;SDS011;54011;50.772;7.730;2023-04-24T06:43:21;6.68;;;3.42;;
67092;SDS011;54011;50.772;7.730;2023-04-24T06:45:47;7.43;;;3.88;;
67092;SDS011;54011;50.772;7.730;2023-04-24T06:48:13;5.68;;;3.20;;
67092;SDS011;54011;50.772;7.730;2023-04-24T06:50:38;6.97;;;3.00;;
67092;SDS011;54011;50.772;7.730;2023-04-24T06:53:03;8.88;;;4.07;;
67092;SDS011;54011;50.772;7.730;2023-04-24T06:55:30;8.60;;;4.15;;
67092;SDS011;54011;50.772;7.730;2023-04-24T06:57:59;6.07;;;3.03;;
67092;SDS011;54011;50.772;7.730;2023-04-24T07:00:26;6.53;;;3.70;;
67092;SDS011;54011;50.772;7.730;2023-04-24T07:02:52;6.05;;;3.40;;
67092;SDS011;54011;50.772;7.730;2023-04-24T07:05:17;6.28;;;3.13;;
67092;SDS011;54011;50.772;7.730;2023-04-24T07:07:45;7.57;;;4.03;;
67092;SDS011;54011;50.772;7.730;2023-04-24T07:10:12;5.80;;;3.35;;
67092;SDS011;54011;50.772;7.730;2023-04-24T07:12:38;8.07;;;4.25;;
67092;SDS011;54011;50.772;7.730;2023-04-24T07:15:04;7.28;;;3.67;;
67092;SDS011;54011;50.772;7.730;2023-04-24T07:17:30;7.63;;;4.25;;
67092;SDS011;54011;50.772;7.730;2023-04-24T07:19:57;6.03;;;3.53;;
67092;SDS011;54011;50.772;7.730;2023-04-24T07:22:24;7.22;;;3.80;;
67092;SDS011;54011;50.772;7.730;2023-04-24T07:24:49;9.70;;;3.58;;
67092;SDS011;54011;50.772;7.730;2023-04-24T07:27:15;5.78;;;3.30;;
67092;SDS011;54011;50.772;7.730;2023-04-24T07:29:41;5.95;;;3.92;;
67092;SDS011;54011;50.772;7.730;2023-04-24T07:32:06;6.35;;;3.90;;
67092;SDS011;54011;50.772;7.730;2023-04-24T07:34:32;7.00;;;3.58;;
67092;SDS011;54011;50.772;7.730;2023-04-24T07:36:58;8.88;;;4.68;;
67092;SDS011;54011;50.772;7.730;2023-04-24T07:39:23;8.23;;;4.07;;
67092;SDS011;54011;50.772;7.730;2023-04-24T07:41:51;10.75;;;5.20;;
67092;SDS011;54011;50.772;7.730;2023-04-24T07:44:18;6.32;;;3.70;;
67092;SDS011;54011;50.772;7.730;2023-04-24T07:46:43;9.63;;;5.13;;
67092;SDS011;54011;50.772;7.730;2023-04-24T07:49:10;7.95;;;4.72;;
67092;SDS011;54011;50.772;7.730;2023-04-24T07:51:36;8.95;;;5.40;;
67092;SDS011;54011;50.772;7.730;2023-04-24T07:54:05;9.05;;;5.07;;
67092;SDS011;54011;50.772;7.730;2023-04-24T07:56:31;8.13;;;4.93;;
67092;SDS011;54011;50.772;7.730;2023-04-24T07:58:59;9.43;;;5.00;;
67092;SDS011;54011;50.772;7.730;2023-04-24T08:01:25;7.75;;;3.67;;
67092;SDS011;54011;50.772;7.730;2023-04-24T08:03:51;7.47;;;3.70;;
67092;SDS011;54011;50.772;7.730;2023-04-24T08:06:17;9.23;;;3.10;;
67092;SDS011;54011;50.772;7.730;2023-04-24T08:08:42;3.88;;;2.35;;
67092;SDS011;54011;50.772;7.730;2023-04-24T08:11:09;13.25;;;5.28;;
67092;SDS011;54011;50.772;7.730;2023-04-24T08:13:34;9.18;;;4.80;;
67092;SDS011;54011;50.772;7.730;2023-04-24T08:16:00;9.65;;;5.30;;
67092;SDS011;54011;50.772;7.730;2023-04-24T08:18:27;8.43;;;4.13;;
67092;SDS011;54011;50.772;7.730;2023-04-24T08:20:54;11.27;;;4.40;;
67092;SDS011;54011;50.772;7.730;2023-04-24T08:23:26;7.32;;;3.75;;
67092;SDS011;54011;50.772;7.730;2023-04-24T08:25:54;8.45;;;5.20;;
67092;SDS011;54011;50.772;7.730;2023-04-24T08:28:21;8.07;;;4.05;;
67092;SDS011;54011;50.772;7.730;2023-04-24T08:30:50;3.92;;;2.17;;
67092;SDS011;54011;50.772;7.730;2023-04-24T08:33:21;8.30;;;4.50;;
67092;SDS011;54011;50.772;7.730;2023-04-24T08:35:48;5.95;;;3.58;;
67092;SDS011;54011;50.772;7.730;2023-04-24T08:38:13;4.45;;;2.42;;
67092;SDS011;54011;50.772;7.730;2023-04-24T08:40:41;6.63;;;3.47;;
67092;SDS011;54011;50.772;7.730;2023-04-24T08:43:07;5.47;;;3.00;;
67092;SDS011;54011;50.772;7.730;2023-04-24T08:45:34;5.82;;;3.75;;
67092;SDS011;54011;50.772;7.730;2023-04-24T08:48:00;4.50;;;2.10;;
67092;SDS011;54011;50.772;7.730;2023-04-24T08:50:26;8.10;;;4.32;;
67092;SDS011;54011;50.772;7.730;2023-04-24T08:52:53;6.03;;;3.60;;
67092;SDS011;54011;50.772;7.730;2023-04-24T08:55:21;4.90;;;2.75;;
67092;SDS011;54011;50.772;7.730;2023-04-24T08:57:52;4.43;;;2.38;;
67092;SDS011;54011;50.772;7.730;2023-04-24T09:00:21;2.88;;;1.45;;
67092;SDS011;54011;50.772;7.730;2023-04-24T09:02:52;3.85;;;1.70;;
67092;SDS011;54011;50.772;7.730;2023-04-24T09:05:19;1.63;;;0.85;;
67092;SDS011;54011;50.772;7.730;2023-04-24T09:07:49;3.10;;;1.48;;
67092;SDS011;54011;50.772;7.730;2023-04-24T09:10:20;3.67;;;1.25;;
67092;SDS011;54011;50.772;7.730;2023-04-24T09:12:46;1.52;;;0.75;;
67092;SDS011;54011;50.772;7.730;2023-04-24T09:15:14;1.95;;;0.90;;
67092;SDS011;54011;50.772;7.730;2023-04-24T09:17:41;4.43;;;1.20;;
67092;SDS011;54011;50.772;7.730;2023-04-24T09:20:09;2.05;;;0.90;;
67092;SDS011;54011;50.772;7.730;2023-04-24T09:22:35;2.13;;;0.82;;
67092;SDS011;54011;50.772;7.730;2023-04-24T09:25:05;2.90;;;0.98;;
67092;SDS011;54011;50.772;7.730;2023-04-24T09:27:33;2.70;;;1.20;;
67092;SDS011;54011;50.772;7.730;2023-04-24T09:29:59;1.67;;;0.70;;
67092;SDS011;54011;50.772;7.730;2023-04-24T09:32:26;2.50;;;0.90;;
67092;SDS011;54011;50.772;7.730;2023-04-24T09:35:05;2.80;;;1.10;;
67092;SDS011;54011;50.772;7.730;2023-04-24T09:37:35;1.80;;;0.90;;
67092;SDS011;54011;50.772;7.730;2023-04-24T09:40:18;3.92;;;0.90;;
67092;SDS011;54011;50.772;7.730;2023-04-24T09:42:45;2.50;;;0.80;;
67092;SDS011;54011;50.772;7.730;2023-04-24T09:45:16;1.73;;;0.80;;
67092;SDS011;54011;50.772;7.730;2023-04-24T09:47:45;0.90;;;0.50;;
67092;SDS011;54011;50.772;7.730;2023-04-24T09:52:58;3.05;;;1.05;;
67092;SDS011;54011;50.772;7.730;2023-04-24T09:55:27;1.38;;;0.70;;
67092;SDS011;54011;50.772;7.730;2023-04-24T09:57:53;1.77;;;0.80;;
67092;SDS011;54011;50.772;7.730;2023-04-24T10:00:26;2.38;;;1.00;;
67092;SDS011;54011;50.772;7.730;2023-04-24T10:03:00;2.42;;;1.13;;
67092;SDS011;54011;50.772;7.730;2023-04-24T10:05:33;3.15;;;1.30;;
67092;SDS011;54011;50.772;7.730;2023-04-24T10:08:03;4.40;;;1.33;;
67092;SDS011;54011;50.772;7.730;2023-04-24T10:10:33;2.63;;;1.20;;
67092;SDS011;54011;50.772;7.730;2023-04-24T10:13:06;2.60;;;1.10;;
67092;SDS011;54011;50.772;7.730;2023-04-24T10:15:34;4.18;;;1.75;;
67092;SDS011;54011;50.772;7.730;2023-04-24T10:18:00;6.22;;;2.17;;
67092;SDS011;54011;50.772;7.730;2023-04-24T10:20:28;3.20;;;1.58;;
67092;SDS011;54011;50.772;7.730;2023-04-24T10:22:56;4.57;;;2.08;;
67092;SDS011;54011;50.772;7.730;2023-04-24T10:25:26;3.00;;;1.63;;
67092;SDS011;54011;50.772;7.730;2023-04-24T10:27:53;5.28;;;1.83;;
67092;SDS011;54011;50.772;7.730;2023-04-24T10:30:26;3.22;;;1.67;;
67092;SDS011;54011;50.772;7.730;2023-04-24T10:32:55;4.47;;;1.90;;
67092;SDS011;54011;50.772;7.730;2023-04-24T10:35:21;4.68;;;1.60;;
67092;SDS011;54011;50.772;7.730;2023-04-24T10:38:03;4.00;;;2.17;;
67092;SDS011;54011;50.772;7.730;2023-04-24T10:40:32;2.72;;;1.17;;
67092;SDS011;54011;50.772;7.730;2023-04-24T10:43:03;5.22;;;2.47;;
67092;SDS011;54011;50.772;7.730;2023-04-24T10:45:34;4.20;;;2.13;;
67092;SDS011;54011;50.772;7.730;2023-04-24T10:48:02;5.43;;;2.30;;
67092;SDS011;54011;50.772;7.730;2023-04-24T10:50:34;7.50;;;2.58;;
67092;SDS011;54011;50.772;7.730;2023-04-24T10:53:14;4.95;;;2.78;;
67092;SDS011;54011;50.772;7.730;2023-04-24T10:55:45;4.57;;;2.30;;
67092;SDS011;54011;50.772;7.730;2023-04-24T10:58:13;3.78;;;2.15;;
67092;SDS011;54011;50.772;7.730;2023-04-24T11:00:43;3.35;;;1.63;;
67092;SDS011;54011;50.772;7.730;2023-04-24T11:03:28;5.07;;;2.30;;
67092;SDS011;54011;50.772;7.730;2023-04-24T11:05:55;5.65;;;2.72;;
67092;SDS011;54011;50.772;7.730;2023-04-24T11:08:44;3.60;;;1.77;;
67092;SDS011;54011;50.772;7.730;2023-04-24T11:11:15;5.82;;;2.50;;
67092;SDS011;54011;50.772;7.730;2023-04-24T11:16:34;5.97;;;1.95;;
67092;SDS011;54011;50.772;7.730;2023-04-24T11:19:26;4.90;;;1.80;;
67092;SDS011;54011;50.772;7.730;2023-04-24T11:21:56;4.18;;;2.08;;
67092;SDS011;54011;50.772;7.730;2023-04-24T11:24:33;3.90;;;2.08;;
67092;SDS011;54011;50.772;7.730;2023-04-24T11:27:16;6.13;;;2.50;;
67092;SDS011;54011;50.772;7.730;2023-04-24T11:29:48;5.05;;;2.15;;
67092;SDS011;54011;50.772;7.730;2023-04-24T11:32:30;5.72;;;2.22;;
67092;SDS011;54011;50.772;7.730;2023-04-24T11:34:59;4.25;;;2.05;;
67092;SDS011;54011;50.772;7.730;2023-04-24T11:37:34;6.75;;;3.03;;
67092;SDS011;54011;50.772;7.730;2023-04-24T11:40:02;7.07;;;2.55;;
67092;SDS011;54011;50.772;7.730;2023-04-24T11:45:13;5.28;;;2.15;;
67092;SDS011;54011;50.772;7.730;2023-04-24T11:47:40;7.05;;;3.03;;
67092;SDS011;54011;50.772;7.730;2023-04-24T11:50:11;4.40;;;2.63;;
67092;SDS011;54011;50.772;7.730;2023-04-24T11:52:40;9.20;;;3.50;;
67092;SDS011;54011;50.772;7.730;2023-04-24T11:55:12;6.50;;;3.22;;
67092;SDS011;54011;50.772;7.730;2023-04-24T11:57:56;7.50;;;3.50;;
67092;SDS011;54011;50.772;7.730;2023-04-24T12:00:26;8.07;;;3.30;;
67092;SDS011;54011;50.772;7.730;2023-04-24T12:03:06;5.68;;;3.08;;
67092;SDS011;54011;50.772;7.730;2023-04-24T12:05:52;8.52;;;3.45;;
67092;SDS011;54011;50.772;7.730;2023-04-24T12:08:30;6.57;;;4.00;;
67092;SDS011;54011;50.772;7.730;2023-04-24T12:10:57;9.15;;;3.30;;
67092;SDS011;54011;50.772;7.730;2023-04-24T12:13:25;11.77;;;3.72;;
67092;SDS011;54011;50.772;7.730;2023-04-24T12:15:51;7.68;;;3.88;;
67092;SDS011;54011;50.772;7.730;2023-04-24T12:18:17;9.35;;;3.20;;
67092;SDS011;54011;50.772;7.730;2023-04-24T12:20:43;13.13;;;5.63;;
67092;SDS011;54011;50.772;7.730;2023-04-24T12:23:08;8.77;;;3.88;;
67092;SDS011;54011;50.772;7.730;2023-04-24T12:25:34;5.53;;;2.88;;
67092;SDS011;54011;50.772;7.730;2023-04-24T12:30:34;8.05;;;3.50;;
67092;SDS011;54011;50.772;7.730;2023-04-24T12:33:05;6.55;;;3.05;;
67092;SDS011;54011;50.772;7.730;2023-04-24T12:35:33;8.07;;;3.53;;
67092;SDS011;54011;50.772;7.730;2023-04-24T12:38:07;6.82;;;2.60;;
67092;SDS011;54011;50.772;7.730;2023-04-24T12:40:35;4.90;;;2.45;;
67092;SDS011;54011;50.772;7.730;2023-04-24T12:43:23;8.30;;;3.20;;
67092;SDS011;54011;50.772;7.730;2023-04-24T12:45:48;8.77;;;3.85;;
67092;SDS011;54011;50.772;7.730;2023-04-24T12:48:15;7.35;;;3.40;;
67092;SDS011;54011;50.772;7.730;2023-04-24T12:50:43;6.95;;;3.03;;
67092;SDS011;54011;50.772;7.730;2023-04-24T12:53:09;8.90;;;3.33;;
67092;SDS011;54011;50.772;7.730;2023-04-24T12:55:35;8.02;;;2.63;;
67092;SDS011;54011;50.772;7.730;2023-04-24T12:58:03;7.25;;;3.78;;
67092;SDS011;54011;50.772;7.730;2023-04-24T13:00:34;9.55;;;2.75;;
67092;SDS011;54011;50.772;7.730;2023-04-24T13:03:00;6.03;;;2.92;;
67092;SDS011;54011;50.772;7.730;2023-04-24T13:05:27;6.15;;;2.05;;
67092;SDS011;54011;50.772;7.730;2023-04-24T13:07:54;6.95;;;3.42;;
67092;SDS011;54011;50.772;7.730;2023-04-24T13:10:20;10.27;;;4.30;;
67092;SDS011;54011;50.772;7.730;2023-04-24T13:12:47;10.65;;;4.43;;
67092;SDS011;54011;50.772;7.730;2023-04-24T13:15:12;11.27;;;5.60;;
67092;SDS011;54011;50.772;7.730;2023-04-24T13:17:41;8.40;;;4.43;;
67092;SDS011;54011;50.772;7.730;2023-04-24T13:20:08;10.27;;;5.45;;
67092;SDS011;54011;50.772;7.730;2023-04-24T13:22:33;12.18;;;5.20;;
67092;SDS011;54011;50.772;7.730;2023-04-24T13:25:01;7.60;;;3.40;;
67092;SDS011;54011;50.772;7.730;2023-04-24T13:27:27;8.70;;;4.03;;
67092;SDS011;54011;50.772;7.730;2023-04-24T13:29:52;14.35;;;5.25;;
67092;SDS011;54011;50.772;7.730;2023-04-24T13:32:18;12.63;;;5.85;;
67092;SDS011;54011;50.772;7.730;2023-04-24T13:34:47;8.05;;;3.75;;
67092;SDS011;54011;50.772;7.730;2023-04-24T13:37:13;7.63;;;3.22;;
67092;SDS011;54011;50.772;7.730;2023-04-24T13:39:39;9.60;;;3.70;;
67092;SDS011;54011;50.772;7.730;2023-04-24T13:42:06;9.75;;;4.13;;
67092;SDS011;54011;50.772;7.730;2023-04-24T13:44:32;12.75;;;4.10;;
67092;SDS011;54011;50.772;7.730;2023-04-24T13:46:57;9.57;;;2.90;;
67092;SDS011;54011;50.772;7.730;2023-04-24T13:49:28;11.07;;;4.43;;
67092;SDS011;54011;50.772;7.730;2023-04-24T13:51:55;8.80;;;3.90;;
67092;SDS011;54011;50.772;7.730;2023-04-24T13:54:24;7.57;;;3.20;;
67092;SDS011;54011;50.772;7.730;2023-04-24T13:56:51;11.30;;;4.72;;
67092;SDS011;54011;50.772;7.730;2023-04-24T13:59:16;8.43;;;3.33;;
67092;SDS011;54011;50.772;7.730;2023-04-24T14:01:42;11.90;;;4.95;;
67092;SDS011;54011;50.772;7.730;2023-04-24T14:04:11;6.63;;;2.33;;
67092;SDS011;54011;50.772;7.730;2023-04-24T14:06:38;8.30;;;3.13;;
67092;SDS011;54011;50.772;7.730;2023-04-24T14:09:03;9.43;;;3.88;;
67092;SDS011;54011;50.772;7.730;2023-04-24T14:11:29;8.07;;;3.63;;
67092;SDS011;54011;50.772;7.730;2023-04-24T14:13:55;7.70;;;3.47;;
67092;SDS011;54011;50.772;7.730;2023-04-24T14:16:23;6.05;;;3.20;;
67092;SDS011;54011;50.772;7.730;2023-04-24T14:18:48;12.40;;;4.78;;
67092;SDS011;54011;50.772;7.730;2023-04-24T14:21:14;10.50;;;4.50;;
67092;SDS011;54011;50.772;7.730;2023-04-24T14:23:40;11.98;;;4.43;;
67092;SDS011;54011;50.772;7.730;2023-04-24T14:26:06;15.43;;;5.60;;
67092;SDS011;54011;50.772;7.730;2023-04-24T14:28:32;14.95;;;5.25;;
67092;SDS011;54011;50.772;7.730;2023-04-24T14:30:57;13.23;;;5.78;;
67092;SDS011;54011;50.772;7.730;2023-04-24T14:33:23;9.00;;;4.00;;
67092;SDS011;54011;50.772;7.730;2023-04-24T14:35:49;7.20;;;4.13;;
67092;SDS011;54011;50.772;7.730;2023-04-24T14:38:15;7.35;;;3.17;;
67092;SDS011;54011;50.772;7.730;2023-04-24T14:40:40;12.40;;;4.72;;
67092;SDS011;54011;50.772;7.730;2023-04-24T14:43:06;8.13;;;3.88;;
67092;SDS011;54011;50.772;7.730;2023-04-24T14:45:32;8.02;;;3.78;;
67092;SDS011;54011;50.772;7.730;2023-04-24T14:47:57;16.00;;;5.05;;
67092;SDS011;54011;50.772;7.730;2023-04-24T14:50:23;13.68;;;4.00;;
67092;SDS011;54011;50.772;7.730;2023-04-24T14:52:48;8.23;;;4.15;;
67092;SDS011;54011;50.772;7.730;2023-04-24T14:55:16;9.85;;;4.07;;
67092;SDS011;54011;50.772;7.730;2023-04-24T14:57:45;10.43;;;4.50;;
67092;SDS011;54011;50.772;7.730;2023-04-24T15:00:11;8.65;;;4.43;;
67092;SDS011;54011;50.772;7.730;2023-04-24T15:02:38;10.52;;;3.95;;
67092;SDS011;54011;50.772;7.730;2023-04-24T15:05:10;11.32;;;4.90;;
67092;SDS011;54011;50.772;7.730;2023-04-24T15:07:39;14.15;;;5.90;;
67092;SDS011;54011;50.772;7.730;2023-04-24T15:10:06;11.15;;;3.58;;